Scroll down
FLIGHT INFORMATION
Alaska Airlines

ASA182

At Arrival Gate

KJAC
 KEGE
DATE: 2020-01-11
GATE:  -
GATE DEPARTURE: 17:23
TAKEOFF: 17:23
DATE: 2020-01-11
GATE:  -
LANDING: 18:18
GATE ARRIVAL: 18:24
FLIGHT DATA
Crew: 
Speed: 
465 kts
Altitude: 
38,002 ft
Stage Length: 
293.3 nm
Block Time: 
1.2 hrs
Flight Time: 
0.9 hrs
Fuel Used: 
6,449 lb
Cleared Route: 
TRACK DATA
50,000 ft 1,000 kts
AIRCRAFT INFO AND CUMULATIVE STATS
Aircraft Type: 
B739SSW
Registration: 
SELCAL: 
MSN/LN: 
33679 / 1344
Operator: 
Total Flights: 
14
Total Block Time: 
20 hrs
Total Flight Time: 
16.9 hrs
Total Fuel Used: 
142,026 lb
DATALINK LOG | Newest first | Current as of: 2021-11-30 21:25:32
LABEL SEQUENCE CONTENT Dn/Up
QD255918:24 6.4▼ Dn
QC180118:18▼ Dn
QB244017:23▼ Dn
QA230417:23 12.6▼ Dn
A34309CLEARED TO KEGE VIA KJAC KEGE AS0182 N319AS . SQUAWK 3410.▲ Up
B31545KJAC KEGE AS0182 N319AS ▼ Dn
5U4208KJAC 111737Z 1118/1218 20010KT 2SM -SN OVC019 FM120300 20010KT 3SM -SN SCT014 OVC024 FM121000 20009KT P6SM VCSH SCT015 OVC030▲ Up
5U4208KEGE 112048Z 1121/1218 VRB03KT 1SM -SN BKN025 OVC050 FM112300 VRB03KT 5SM -SN SCT025 BKN045 FM120100 VRB03KT P6SM -SHSN SCT025 BKN040 FM120700 VRB03KT 3SM -SN BR SCT015 BKN030 FM121200 VRB03KT P6SM FEW025 BKN045▲ Up
5S1437KJAC KEGE▼ Dn
2U4107KJAC 112331Z 25009KT 1 1/4SM -SN BR SCT017 BKN021 OVC031 M07/M08 A2975 RMK AO2 P0000▲ Up
2U4107KEGE 112303Z 00000KT 3SM -SN BR SCT028 BKN034 OVC044 M11/M13 A2993 RMK AO2 PNO $▲ Up
2S1329KJAC KEGE▼ Dn
Q04013[LINK ACK]▲ Up
Q01225[LINK TEST]▼ Dn
Q02631[LINK ACK]▲ Up
Q00414[LINK TEST]▼ Dn


AIRCRAFT HISTORY
FLIGHT DATE FLIGHT NO. ORIGIN DESTINATION CLEARED ROUTE BLOCK TIME FLIGHT TIME FUEL USED PILOT
2020-11-13ASA901KSEA KBUR KSEA NEVJO SUMMA SMIGE SUNBE FRA REBRG MMTLY CRUUE EEAZY HIHWY MAIDD PEPRZ HEVVY ROKKR ZEPPE IVINS MIKEI RW082.1 hrs1.9 hrs11,576 lbDan Downs
2020-07-14ASA1202KPDX KSEA KPDX COUGA KRIEG KSEA0.7 hrs0.6 hrs4,211 lbMichael Roth
2020-05-23ASA522KPAE KPDX 0.9 hrs0.6 hrs5,096 lbCharles Harris
2020-02-01ASA201KIDA KPAE 1.7 hrs1.5 hrs8,300 lbJhan Jensen
2020-01-23ASA327KRNO KIDA 1.7 hrs1.6 hrs9,136 lbJhan Jensen
2020-01-15ASA99KEGE KRNO 1.9 hrs1.6 hrs9,698 lbJhan Jensen
2020-01-11ASA182KJAC KEGE 1.2 hrs0.9 hrs6,449 lbJhan Jensen
2020-01-03ASA68KGPI KJAC 1.4 hrs1 hrs5,452 lbJhan Jensen
2020-01-03ASA67CYYC KGPI 0.8 hrs0.7 hrs4,803 lbJhan Jensen
2019-11-24ASA1124KLAX CYYC 1.1 hrs0.8 hrs41,517 lbRandall Smith
2019-11-24ASA9722KSAN KLAX 0.6 hrs0.4 hrs3,440 lbKyle Weber
2019-11-24ASA135KSLC KSAN 1.6 hrs1.5 hrs8,755 lbJhan Jensen
2019-11-16ASA172KSEA KSLC 1.8 hrs1.6 hrs9,842 lbJhan Jensen
2019-11-07ASA955KLAS KSEA 2.5 hrs2.3 hrs13,750 lbAllan Burek